Terminal Aerodrome Forecast
Issued by NWS

Current Version | Previous Version | Graphics & Text | Print | Product List | Glossary On
Versions: 1 2 3 4 5 6 7 8 9 10 11 12 13 14 15 16 17 18 19 20
000
FTUS41 KPBZ 282212 AAA
TAFMGW
TAF AMD
KMGW 282212Z 2822/2918 VRB05KT P6SM OVC040
      TEMPO 2822/2824 5SM -RA
     FM290200 VRB03KT P6SM SKC
      TEMPO 2908/2912 3SM BR=

USA.gov is the U.S. government's official web portal to all federal, state and local government web resources and services.